Time;durP1;ratioP1;P1;durP2;ratioP2;P2;SDS_P1;SDS_P2;PMS_P1;PMS_P2;Temp;Humidity;BMP_temperature;BMP_pressure;BME280_temperature;BME280_humidity;BME280_pressure;Samples;Min_cycle;Max_cycle;Signal;HPM_P1;HPM_P2
2022/04/03 00:00:43;;;;;;;;;12.50;11.00;;;;;6.74;100.00;101908.84;6335418;22;45400;-89
2022/04/03 00:03:08;;;;;;;;;10.00;9.25;;;;;6.72;100.00;101915.63;6335681;22;45447;-90
2022/04/03 00:05:38;;;;;;;;;9.50;7.00;;;;;6.67;100.00;101917.88;6359775;22;45431;-90
2022/04/03 00:08:06;;;;;;;;;11.25;11.25;;;;;6.60;100.00;101920.75;6333285;22;45407;-90
2022/04/03 00:10:31;;;;;;;;;10.00;9.00;;;;;6.61;100.00;101924.28;6333824;22;45269;-90
2022/04/03 00:12:58;;;;;;;;;10.00;10.00;;;;;6.61;100.00;101927.81;6332759;22;48191;-90
2022/04/03 00:15:23;;;;;;;;;10.25;10.25;;;;;6.64;100.00;101935.91;6335580;22;45625;-90
2022/04/03 00:17:48;;;;;;;;;12.00;11.25;;;;;6.52;100.00;101914.91;6360345;22;45215;-90
2022/04/03 00:20:14;;;;;;;;;10.50;10.50;;;;;6.50;100.00;101920.78;6335662;22;45277;-90
2022/04/03 00:22:42;;;;;;;;;13.25;12.50;;;;;6.51;100.00;101934.00;6335502;22;46186;-89
2022/04/03 00:25:08;;;;;;;;;14.75;12.75;;;;;6.43;100.00;101927.22;6334506;22;45445;-90
2022/04/03 00:27:34;;;;;;;;;12.75;10.75;;;;;6.32;100.00;101909.00;6335039;22;45328;-89
2022/04/03 00:30:00;;;;;;;;;8.75;8.50;;;;;6.33;100.00;101921.28;6335337;22;45288;-89
2022/04/03 00:32:25;;;;;;;;;14.75;13.75;;;;;6.37;100.00;101928.53;6334569;22;45271;-89
2022/04/03 00:34:50;;;;;;;;;14.50;12.75;;;;;6.30;100.00;101910.59;6335162;22;45311;-89
2022/04/03 00:37:16;;;;;;;;;7.75;7.75;;;;;6.33;100.00;101926.50;6332546;22;45831;-90
2022/04/03 00:39:41;;;;;;;;;12.75;11.00;;;;;6.35;100.00;101929.22;6332157;22;45376;-89
2022/04/03 00:42:08;;;;;;;;;9.00;9.00;;;;;6.27;100.00;101915.53;6334877;22;46449;-90
2022/04/03 00:44:35;;;;;;;;;13.25;9.50;;;;;6.29;100.00;101920.91;6332108;22;45740;-89
2022/04/03 00:47:04;;;;;;;;;12.50;9.75;;;;;6.29;100.00;101915.69;6332977;22;45622;-89
2022/04/03 00:49:30;;;;;;;;;13.25;11.00;;;;;6.31;100.00;101927.16;6333065;22;45546;-89
2022/04/03 00:51:57;;;;;;;;;11.25;9.00;;;;;6.28;100.00;101919.97;6334968;22;45571;-90
2022/04/03 00:54:23;;;;;;;;;12.00;12.00;;;;;6.20;100.00;101911.53;6335334;22;45239;-90
2022/04/03 00:56:49;;;;;;;;;12.00;8.00;;;;;6.31;100.00;101930.66;6332609;22;45579;-89
2022/04/03 00:59:15;;;;;;;;;6.75;6.75;;;;;6.17;100.00;101916.47;6334774;22;45474;-90
2022/04/03 01:01:41;;;;;;;;;6.25;6.25;;;;;6.12;100.00;101905.69;6333188;22;47012;-89
2022/04/03 01:04:07;;;;;;;;;7.75;7.75;;;;;6.16;100.00;101908.56;6360037;22;45264;-89
2022/04/03 01:06:33;;;;;;;;;8.75;8.75;;;;;6.23;100.00;101922.22;6332703;22;45671;-90
2022/04/03 01:08:58;;;;;;;;;11.00;9.50;;;;;6.22;100.00;101919.47;6335898;22;45387;-89
2022/04/03 01:11:24;;;;;;;;;11.00;9.50;;;;;6.20;100.00;101921.97;6334695;22;45377;-89
2022/04/03 01:13:51;;;;;;;;;9.75;6.75;;;;;6.25;100.00;101924.94;6346290;22;45372;-89
2022/04/03 01:16:17;;;;;;;;;11.50;9.75;;;;;6.20;100.00;101921.97;6354713;22;45209;-89
2022/04/03 01:18:42;;;;;;;;;9.75;7.75;;;;;6.12;100.00;101909.97;6355679;22;45054;-90
2022/04/03 01:21:08;;;;;;;;;9.25;6.00;;;;;6.18;100.00;101920.94;6360883;22;47185;-90
2022/04/03 01:23:33;;;;;;;;;14.50;11.00;;;;;6.17;100.00;101910.34;6363129;22;45265;-90
2022/04/03 01:25:58;;;;;;;;;11.00;8.50;;;;;6.19;100.00;101914.00;6363134;22;44758;-90
2022/04/03 01:28:24;;;;;;;;;8.00;8.00;;;;;6.24;100.00;101924.03;6363015;22;45632;-90
2022/04/03 01:30:50;;;;;;;;;9.00;6.50;;;;;6.22;100.00;101920.38;6363167;22;46839;-90
2022/04/03 01:33:16;;;;;;;;;9.75;9.50;;;;;6.27;100.00;101928.56;6362079;22;45110;-90
2022/04/03 01:35:42;;;;;;;;;9.50;9.00;;;;;6.20;100.00;101918.44;6374184;22;44728;-89
2022/04/03 01:38:08;;;;;;;;;10.00;9.00;;;;;6.18;100.00;101912.19;6333713;22;45396;-90
2022/04/03 01:40:36;;;;;;;;;12.00;10.00;;;;;6.18;100.00;101910.50;6335034;22;45326;-90
2022/04/03 01:43:06;;;;;;;;;13.75;9.00;;;;;6.22;100.00;101920.38;6333622;22;45358;-90
2022/04/03 01:45:33;;;;;;;;;13.25;8.00;;;;;6.17;100.00;101910.34;6336042;22;45292;-90
2022/04/03 01:47:59;;;;;;;;;9.25;7.75;;;;;6.13;100.00;101906.59;6335330;22;45372;-90
2022/04/03 01:50:25;;;;;;;;;12.50;9.00;;;;;6.19;100.00;101917.50;6334861;22;46637;-90
2022/04/03 01:52:51;;;;;;;;;9.50;8.25;;;;;6.18;100.00;101918.31;6334015;22;45244;-90
2022/04/03 01:55:16;;;;;;;;;7.25;7.25;;;;;6.09;100.00;101899.28;6333005;22;45299;-90
2022/04/03 01:57:42;;;;;;;;;9.75;7.50;;;;;6.11;100.00;101903.84;6335079;22;45455;-90
2022/04/03 02:00:09;;;;;;;;;15.00;12.75;;;;;6.10;100.00;101901.13;6333767;22;46961;-89
2022/04/03 02:02:36;;;;;;;;;8.75;7.00;;;;;6.14;100.00;101917.13;6336188;22;45425;-90
2022/04/03 02:05:01;;;;;;;;;9.00;9.00;;;;;6.08;100.00;101903.59;6359513;22;45370;-90
2022/04/03 02:07:29;;;;;;;;;9.75;9.25;;;;;6.10;100.00;101909.88;6331874;22;45518;-90
2022/04/03 02:09:54;;;;;;;;;9.75;8.75;;;;;6.11;100.00;101906.44;6333218;22;46081;-90
2022/04/03 02:12:20;;;;;;;;;9.75;8.25;;;;;6.10;100.00;101906.34;6335481;22;45431;-90
2022/04/03 02:14:45;;;;;;;;;10.50;9.25;;;;;6.10;100.00;101904.66;6335112;22;45279;-89
2022/04/03 02:17:10;;;;;;;;;7.50;6.75;;;;;6.07;100.00;101914.81;6332933;22;45451;-90
2022/04/03 02:19:36;;;;;;;;;11.25;10.00;;;;;6.11;100.00;101909.06;6335192;22;46549;-90
2022/04/03 02:22:01;;;;;;;;;7.25;6.00;;;;;6.08;100.00;101905.31;6332339;22;45293;-90
2022/04/03 02:24:27;;;;;;;;;14.00;7.00;;;;;6.13;100.00;101917.03;6359529;22;45315;-89
2022/04/03 02:26:52;;;;;;;;;9.25;9.25;;;;;6.09;100.00;101914.94;6332457;22;45497;-89
2022/04/03 02:29:18;;;;;;;;;7.75;5.25;;;;;6.11;100.00;101919.50;6358568;22;47911;-90
2022/04/03 02:31:43;;;;;;;;;9.25;6.75;;;;;6.05;100.00;101916.34;6335308;22;45387;-90
2022/04/03 02:34:08;;;;;;;;;8.50;6.00;;;;;6.08;100.00;101921.84;6335482;22;45375;-90
2022/04/03 02:36:34;;;;;;;;;8.75;6.00;;;;;6.01;100.00;101923.00;6333953;22;45280;-89
2022/04/03 02:38:59;;;;;;;;;12.75;9.00;;;;;6.03;100.00;101917.94;6334734;22;46175;-90
2022/04/03 02:41:25;;;;;;;;;10.75;9.00;;;;;5.92;100.00;101912.75;6359447;22;45334;-90
2022/04/03 02:43:51;;;;;;;;;6.50;6.00;;;;;5.97;100.00;101917.41;6333855;22;45389;-90
2022/04/03 02:46:17;;;;;;;;;9.50;7.00;;;;;6.06;100.00;101931.19;6332649;22;45397;-90
2022/04/03 02:48:43;;;;;;;;;10.50;7.75;;;;;5.92;100.00;101902.31;6332270;22;47140;-89
2022/04/03 02:51:08;;;;;;;;;9.00;7.00;;;;;6.02;100.00;101919.63;6333877;22;45408;-90
2022/04/03 02:53:33;;;;;;;;;5.00;5.00;;;;;6.02;100.00;101922.22;6359830;22;45542;-90
2022/04/03 02:55:59;;;;;;;;;7.75;7.75;;;;;6.03;100.00;101925.75;6333970;22;45424;-90
2022/04/03 02:58:24;;;;;;;;;9.75;8.00;;;;;6.02;100.00;101921.31;6333314;22;46273;-90
2022/04/03 03:00:49;;;;;;;;;6.75;6.75;;;;;5.92;100.00;101912.75;6359476;22;45351;-89
2022/04/03 03:03:15;;;;;;;;;7.00;6.25;;;;;5.91;100.00;101907.38;6333650;22;45601;-90
2022/04/03 03:05:41;;;;;;;;;8.75;8.75;;;;;5.95;100.00;101914.69;6333649;22;45283;-89
2022/04/03 03:08:07;;;;;;;;;9.00;6.00;;;;;5.92;100.00;101912.75;6332987;22;47983;-89
2022/04/03 03:10:32;;;;;;;;;10.25;9.50;;;;;6.01;100.00;101929.91;6335259;22;45232;-89
2022/04/03 03:12:58;;;;;;;;;11.25;7.00;;;;;5.97;100.00;101935.66;6359553;22;45295;-90
2022/04/03 03:15:24;;;;;;;;;8.50;7.25;;;;;5.88;100.00;101922.75;6335276;22;45323;-89
2022/04/03 03:17:50;;;;;;;;;9.50;7.25;;;;;5.83;100.00;101914.56;6335867;22;46367;-89
2022/04/03 03:20:16;;;;;;;;;8.75;8.75;;;;;5.88;100.00;101925.34;6333160;22;45729;-89
2022/04/03 03:22:42;;;;;;;;;10.00;9.00;;;;;5.93;100.00;101939.69;6334856;22;45287;-89
2022/04/03 03:25:08;;;;;;;;;8.75;6.50;;;;;5.85;100.00;101930.34;6335086;22;45359;-89
2022/04/03 03:27:38;;;;;;;;;9.00;9.00;;;;;5.92;100.00;101937.88;6333393;22;46979;-89
2022/04/03 03:30:05;;;;;;;;;10.00;10.00;;;;;5.92;100.00;101945.69;6334493;22;45236;-89
2022/04/03 03:32:30;;;;;;;;;10.00;6.50;;;;;5.80;100.00;101923.03;6335587;22;45323;-89
2022/04/03 03:34:56;;;;;;;;;16.50;10.50;;;;;5.85;100.00;101940.75;6334736;22;45341;-89
2022/04/03 03:37:21;;;;;;;;;10.25;9.75;;;;;5.81;100.00;101932.69;6332073;22;46905;-89
2022/04/03 03:39:47;;;;;;;;;11.25;11.25;;;;;5.84;100.00;101936.31;6335586;22;45421;-89
2022/04/03 03:42:13;;;;;;;;;9.50;8.25;;;;;5.86;100.00;101940.88;6360438;22;45628;-90
2022/04/03 03:44:39;;;;;;;;;13.50;7.75;;;;;5.78;100.00;101928.88;6334633;22;45269;-89
2022/04/03 03:47:04;;;;;;;;;9.25;8.75;;;;;5.83;100.00;101940.63;6333194;22;48084;-90
2022/04/03 03:49:30;;;;;;;;;10.25;9.75;;;;;5.79;100.00;101936.84;6359618;22;45469;-89
2022/04/03 03:51:56;;;;;;;;;10.00;8.75;;;;;5.73;100.00;101927.59;6332635;22;45296;-89
2022/04/03 03:54:21;;;;;;;;;9.25;9.00;;;;;5.76;100.00;101935.66;6334980;22;45268;-88
2022/04/03 03:56:46;;;;;;;;;6.50;6.50;;;;;5.75;100.00;101953.00;6334715;22;45999;-89
2022/04/03 03:59:12;;;;;;;;;8.75;6.75;;;;;5.62;100.00;101929.31;6333836;22;45454;-89
2022/04/03 04:01:37;;;;;;;;;10.50;6.00;;;;;5.58;100.00;101934.25;6335514;22;45216;-90
2022/04/03 04:04:02;;;;;;;;;7.00;5.75;;;;;5.63;100.00;101950.28;6333454;22;45459;-90
2022/04/03 04:06:28;;;;;;;;;5.00;4.75;;;;;6.32;100.00;101947.19;6331403;22;46929;-89
2022/04/03 04:08:53;;;;;;;;;5.25;5.25;;;;;5.63;100.00;101936.31;6335621;22;45433;-89
2022/04/03 04:11:19;;;;;;;;;11.75;7.75;;;;;5.54;100.00;101939.06;6334895;22;45441;-90
2022/04/03 04:13:44;;;;;;;;;9.25;7.75;;;;;5.52;100.00;101946.75;6333236;22;45527;-89
2022/04/03 04:16:10;;;;;;;;;7.50;6.50;;;;;5.50;100.00;101955.19;6334703;22;45578;-90
2022/04/03 04:18:36;;;;;;;;;10.00;9.75;;;;;5.39;100.00;101949.97;6334302;22;45460;-90
2022/04/03 04:21:04;;;;;;;;;8.00;7.25;;;;;5.32;100.00;101956.38;6334988;22;45284;-89
2022/04/03 04:23:29;;;;;;;;;7.00;7.00;;;;;5.21;100.00;101957.09;6335705;22;45441;-90
2022/04/03 04:25:55;;;;;;;;;14.00;10.25;;;;;5.17;100.00;101961.16;6331927;22;47219;-90
2022/04/03 04:28:20;;;;;;;;;9.50;9.50;;;;;5.13;100.00;101964.25;6334554;22;45275;-90
2022/04/03 04:30:45;;;;;;;;;8.00;8.00;;;;;5.04;100.00;101961.78;6333214;22;45353;-90
2022/04/03 04:33:11;;;;;;;;;5.75;5.75;;;;;5.02;100.00;101972.06;6333440;22;45605;-90
2022/04/03 04:35:36;;;;;;;;;16.25;9.00;;;;;4.94;100.00;101972.16;6331172;22;47223;-90
2022/04/03 04:38:02;;;;;;;;;11.50;10.75;;;;;4.86;100.00;101969.78;6359189;22;45989;-89
2022/04/03 04:40:28;;;;;;;;;5.75;5.75;;;;;4.84;100.00;101978.22;6335260;22;45537;-90
2022/04/03 04:42:55;;;;;;;;;6.00;6.00;;;;;4.72;100.00;101965.03;6359660;22;45592;-90
2022/04/03 04:45:21;;;;;;;;;9.75;8.00;;;;;4.69;100.00;101966.56;6332721;22;47359;-90
2022/04/03 04:47:48;;;;;;;;;9.50;7.25;;;;;4.62;100.00;101965.91;6334780;22;46636;-89
2022/04/03 04:50:14;;;;;;;;;8.00;7.00;;;;;4.67;100.00;101985.44;6359117;22;45319;-89
2022/04/03 04:52:41;;;;;;;;;8.00;6.00;;;;;4.60;100.00;101989.19;6359724;22;45295;-89
2022/04/03 04:55:07;;;;;;;;;6.75;6.50;;;;;4.47;100.00;101976.75;6333969;22;45620;-89
2022/04/03 04:57:34;;;;;;;;;7.25;7.25;;;;;4.52;100.00;101993.69;6335443;22;45287;-90
2022/04/03 05:00:00;;;;;;;;;9.75;7.25;;;;;4.47;100.00;101994.97;6332929;22;45462;-89
2022/04/03 05:02:26;;;;;;;;;6.25;6.25;;;;;4.47;100.00;101997.56;6335368;22;45415;-89
2022/04/03 05:04:52;;;;;;;;;10.75;9.00;;;;;4.41;100.00;101992.69;6332960;22;48483;-90
2022/04/03 05:07:17;;;;;;;;;11.50;5.25;;;;;4.32;100.00;101987.59;6331172;22;45457;-90
2022/04/03 05:09:44;;;;;;;;;5.75;5.75;;;;;4.28;100.00;101988.06;6331417;22;45445;-90
2022/04/03 05:12:11;;;;;;;;;9.25;7.75;;;;;4.23;100.00;101992.84;6335479;22;45386;-90
2022/04/03 05:14:37;;;;;;;;;7.75;5.75;;;;;4.20;100.00;101994.28;6332188;22;47935;-90
2022/04/03 05:17:04;;;;;;;;;9.00;9.00;;;;;4.18;100.00;101998.41;6334485;22;45229;-90
2022/04/03 05:19:30;;;;;;;;;9.50;7.50;;;;;4.19;100.00;102005.44;6337328;22;45809;-90
2022/04/03 05:21:55;;;;;;;;;10.25;8.50;;;;;4.16;100.00;102012.94;6340550;22;45362;-89
2022/04/03 05:24:21;;;;;;;;;8.00;8.00;;;;;4.07;100.00;102010.44;6358931;22;46994;-89
2022/04/03 05:26:46;;;;;;;;;9.00;7.50;;;;;4.02;100.00;102007.41;6334492;22;45412;-89
2022/04/03 05:29:11;;;;;;;;;6.25;5.50;;;;;4.02;100.00;102016.09;6334638;22;45890;-89
2022/04/03 05:31:37;;;;;;;;;7.50;7.50;;;;;4.03;100.00;102017.00;6358996;22;45709;-90
2022/04/03 05:34:02;;;;;;;;;9.00;8.00;;;;;3.94;100.00;101995.38;6335402;22;46361;-89
2022/04/03 05:36:28;;;;;;;;;8.50;6.25;;;;;4.01;100.00;102016.88;6334117;22;45379;-90
2022/04/03 05:38:54;;;;;;;;;12.00;7.75;;;;;3.94;100.00;102011.91;6332635;22;45879;-89
2022/04/03 05:41:19;;;;;;;;;7.75;6.00;;;;;4.00;100.00;102017.66;6332503;22;45737;-90
2022/04/03 05:43:44;;;;;;;;;8.75;8.75;;;;;4.00;100.00;102022.84;6359571;22;47203;-89
2022/04/03 05:46:10;;;;;;;;;6.50;6.25;;;;;4.05;100.00;102017.16;6358574;22;45595;-90
2022/04/03 05:48:36;;;;;;;;;7.75;7.75;;;;;4.04;100.00;102017.94;6334003;22;45339;-86
2022/04/03 05:51:01;;;;;;;;;8.25;8.00;;;;;4.08;100.00;102026.16;6332637;22;45448;-88
2022/04/03 05:53:26;;;;;;;;;5.50;4.00;;;;;4.07;100.00;102008.72;6333302;22;46067;-87
2022/04/03 05:55:52;;;;;;;;;8.00;5.00;;;;;4.10;100.00;102008.09;6334258;22;45319;-87
2022/04/03 05:58:17;;;;;;;;;7.50;7.50;;;;;4.17;100.00;102023.50;6334353;22;45367;-87
2022/04/03 06:00:42;;;;;;;;;8.50;8.50;;;;;4.23;100.00;102026.66;6331797;22;45569;-88
2022/04/03 06:03:08;;;;;;;;;9.75;9.00;;;;;4.28;100.00;102027.06;6332966;22;45876;-87
2022/04/03 06:05:34;;;;;;;;;8.75;7.50;;;;;4.31;100.00;102023.84;6333205;22;45280;-88
2022/04/03 06:08:01;;;;;;;;;8.25;6.75;;;;;4.43;100.00;102035.34;6332855;22;45486;-88
2022/04/03 06:10:27;;;;;;;;;14.25;12.00;;;;;4.43;100.00;102034.47;6332605;22;45361;-88
2022/04/03 06:13:05;;;;;;;;;6.75;6.75;;;;;4.57;100.00;102044.44;6333185;22;45425;-88
2022/04/03 06:15:33;;;;;;;;;6.00;6.00;;;;;4.57;100.00;102036.63;6329177;22;45890;-88
2022/04/03 06:17:59;;;;;;;;;15.00;12.75;;;;;4.57;100.00;102027.91;6358799;22;45248;-89
2022/04/03 06:20:24;;;;;;;;;8.25;7.50;;;;;4.66;100.00;102044.38;6333278;22;45665;-88
2022/04/03 06:22:50;;;;;;;;;8.25;6.75;;;;;4.69;100.00;102052.41;6332837;22;46917;-87
2022/04/03 06:25:16;;;;;;;;;10.25;10.25;;;;;4.67;100.00;102042.66;6330161;22;45589;-86
2022/04/03 06:27:42;;;;;;;;;8.75;7.00;;;;;4.83;100.00;102059.66;6331484;22;45355;-87
2022/04/03 06:30:08;;;;;;;;;9.00;7.75;;;;;4.88;100.00;102054.09;6356436;22;45350;-87
2022/04/03 06:32:34;;;;;;;;;7.50;7.50;;;;;4.92;100.00;102052.69;6330595;22;47403;-87
2022/04/03 06:34:59;;;;;;;;;9.25;9.00;;;;;4.99;100.00;102056.75;6332634;22;45350;-88
2022/04/03 06:37:24;;;;;;;;;9.00;9.00;;;;;5.07;100.00;102060.94;6330554;22;45322;-87
2022/04/03 06:39:50;;;;;;;;;6.00;5.50;;;;;5.14;100.00;102059.78;6328713;22;48981;-86
2022/04/03 06:42:15;;;;;;;;;9.25;9.25;;;;;5.21;100.00;102063.84;6329919;22;48126;-88
2022/04/03 06:44:41;;;;;;;;;8.25;6.25;;;;;5.29;100.00;102069.72;6328962;22;45630;-87
2022/04/03 06:47:07;;;;;;;;;13.50;8.25;;;;;5.32;100.00;102063.13;6332798;22;45607;-88
2022/04/03 06:49:33;;;;;;;;;11.75;9.50;;;;;5.40;100.00;102076.81;6330643;22;45443;-87
2022/04/03 06:51:59;;;;;;;;;14.25;11.25;;;;;5.47;100.00;102070.44;6328811;22;48121;-88
2022/04/03 06:54:24;;;;;;;;;4.50;4.25;;;;;5.50;100.00;102075.94;6331436;22;45255;-88
2022/04/03 06:56:54;;;;;;;;;9.00;7.50;;;;;5.56;100.00;102070.34;6355784;22;45442;-87
2022/04/03 06:59:20;;;;;;;;;9.00;9.00;;;;;5.68;100.00;102075.72;6331046;22;45332;-85
2022/04/03 07:01:45;;;;;;;;;10.00;9.00;;;;;5.68;100.00;102062.69;6331633;22;46255;-88
2022/04/03 07:04:11;;;;;;;;;9.25;8.75;;;;;5.74;100.00;102075.34;6325382;22;45410;-86
2022/04/03 07:06:36;;;;;;;;;9.75;5.00;;;;;5.80;100.00;102084.59;6326897;22;45268;-88
2022/04/03 07:09:03;;;;;;;;;9.75;9.75;;;;;5.87;100.00;102080.84;6330580;22;45450;-87
2022/04/03 07:11:29;;;;;;;;;7.50;7.50;;;;;5.92;100.00;102089.97;6327750;22;49057;-87
2022/04/03 07:13:54;;;;;;;;;5.75;5.75;;;;;5.91;100.00;102093.34;6330974;22;45341;-87
2022/04/03 07:16:19;;;;;;;;;5.75;5.75;;;;;5.92;100.00;102082.16;6333026;22;45326;-87
2022/04/03 07:18:45;;;;;;;;;6.25;5.50;;;;;5.96;100.00;102093.72;6331187;22;45512;-86
2022/04/03 07:21:10;;;;;;;;;10.75;7.25;;;;;6.07;100.00;102098.97;6333071;22;45727;-87
2022/04/03 07:23:35;;;;;;;;;13.00;11.50;;;;;6.12;100.00;102093.41;6331936;22;45401;-87
2022/04/03 07:26:00;;;;;;;;;7.25;6.50;;;;;6.16;100.00;102098.88;6332479;22;45379;-87
2022/04/03 07:28:26;;;;;;;;;6.75;6.75;;;;;6.25;100.00;102094.44;6331227;22;45509;-88
2022/04/03 07:30:51;;;;;;;;;6.00;6.00;;;;;6.32;100.00;102104.59;6332265;22;46255;-87
2022/04/03 07:33:20;;;;;;;;;8.25;6.75;;;;;6.32;100.00;102098.47;6329470;22;45474;-87
2022/04/03 07:35:46;;;;;;;;;8.50;7.25;;;;;6.40;100.00;102107.84;6330415;22;45388;-88
2022/04/03 07:38:12;;;;;;;;;9.75;6.00;;;;;6.46;100.00;102107.47;6329659;22;45422;-88
2022/04/03 07:40:37;;;;;;;;;11.50;7.25;;;;;6.50;100.00;102101.72;6329897;22;45612;-87
2022/04/03 07:43:02;;;;;;;;;6.50;4.75;;;;;6.54;100.00;102106.44;6332011;22;45342;-87
2022/04/03 07:45:28;;;;;;;;;2.50;2.50;;;;;6.58;100.00;102102.38;6333523;22;45389;-87
2022/04/03 07:47:53;;;;;;;;;6.50;4.50;;;;;6.67;100.00;102095.31;6333262;22;45201;-86
2022/04/03 07:50:19;;;;;;;;;13.50;5.50;;;;;6.77;100.00;102098.69;6329496;22;47930;-87
2022/04/03 07:52:46;;;;;;;;;4.75;4.00;;;;;6.87;100.00;102100.34;6333201;22;45268;-87
2022/04/03 07:55:12;;;;;;;;;7.25;6.25;;;;;6.92;100.00;102097.34;6333618;22;45331;-87
2022/04/03 07:57:39;;;;;;;;;5.00;5.00;;;;;6.96;100.00;102098.50;6330941;22;45431;-88
2022/04/03 08:00:06;;;;;;;;;5.75;5.50;;;;;7.02;100.00;102106.84;6332366;22;45465;-87
2022/04/03 08:02:34;;;;;;;;;3.50;3.50;;;;;7.08;100.00;102110.75;6333404;22;45288;-87
2022/04/03 08:04:59;;;;;;;;;8.25;8.25;;;;;7.12;100.00;102111.13;6330348;22;45332;-87
2022/04/03 08:07:34;;;;;;;;;7.50;5.75;;;;;7.23;100.00;102112.00;6333022;22;45363;-87
2022/04/03 08:09:59;;;;;;;;;6.00;6.00;;;;;7.22;100.00;102112.78;6329821;22;47282;-89
2022/04/03 08:12:25;;;;;;;;;7.25;5.00;;;;;7.33;100.00;102120.56;6335279;22;45423;-88
2022/04/03 08:14:50;;;;;;;;;9.00;7.25;;;;;7.39;100.00;102126.31;6332887;22;45497;-87
2022/04/03 08:17:15;;;;;;;;;6.25;6.25;;;;;7.47;100.00;102119.09;6335443;22;54455;-87
2022/04/03 08:19:41;;;;;;;;;8.00;7.00;;;;;7.60;100.00;102132.31;6335481;22;45694;-87
2022/04/03 08:22:07;;;;;;;;;7.75;5.25;;;;;7.68;100.00;102122.47;6335510;22;45387;-87
2022/04/03 08:24:32;;;;;;;;;5.00;5.00;;;;;7.78;100.00;102134.56;6335601;22;50447;-87
2022/04/03 08:26:57;;;;;;;;;3.00;3.00;;;;;7.83;100.00;102130.63;6334325;22;45312;-88
2022/04/03 08:29:22;;;;;;;;;3.00;3.00;;;;;7.88;100.00;102130.09;6331319;22;48092;-87
2022/04/03 08:31:48;;;;;;;;;4.75;3.50;;;;;7.95;100.00;102129.78;6333600;22;45314;-88
2022/04/03 08:34:13;;;;;;;;;8.25;4.00;;;;;7.98;100.00;102126.50;6334118;22;45447;-86
2022/04/03 08:36:38;;;;;;;;;4.00;4.00;;;;;8.01;100.00;102131.97;6332260;22;45462;-88
2022/04/03 08:39:04;;;;;;;;;2.75;2.75;;;;;8.08;100.00;102130.72;6333763;22;47025;-88
2022/04/03 08:41:29;;;;;;;;;4.50;4.25;;;;;8.15;100.00;102138.25;6381948;22;44657;-88
2022/04/03 08:43:54;;;;;;;;;3.50;2.75;;;;;8.14;100.00;102126.00;6358176;22;45352;-88
2022/04/03 08:46:21;;;;;;;;;5.00;2.75;;;;;8.20;100.00;102128.16;6358591;22;45275;-88
2022/04/03 08:48:46;;;;;;;;;7.00;3.75;;;;;8.26;100.00;102136.50;6357258;22;45320;-88
2022/04/03 08:51:13;;;;;;;;;3.00;3.00;;;;;8.26;100.00;102141.72;6353965;22;45090;-88
2022/04/03 08:53:39;;;;;;;;;1.25;1.25;;;;;8.24;100.00;102122.38;6360417;22;45200;-89
2022/04/03 08:56:05;;;;;;;;;3.00;3.00;;;;;8.29;100.00;102125.34;6358161;22;45312;-88
2022/04/03 08:58:30;;;;;;;;;5.25;3.00;;;;;8.35;100.00;102129.34;6358971;22;45332;-88
2022/04/03 09:00:56;;;;;;;;;5.25;4.00;;;;;8.41;100.00;102133.22;6355386;22;44821;-87
2022/04/03 09:03:21;;;;;;;;;2.50;2.00;;;;;8.42;100.00;102130.75;6348775;22;45221;-89
2022/04/03 09:05:47;;;;;;;;;3.00;3.00;;;;;8.42;100.00;102133.34;6340364;22;45334;-88
2022/04/03 09:08:13;;;;;;;;;1.25;1.25;;;;;8.43;100.00;102137.78;6338029;22;45451;-88
2022/04/03 09:10:41;;;;;;;;;3.00;2.00;;;;;8.46;100.00;102132.78;6330919;22;45521;-87
2022/04/03 09:13:07;;;;;;;;;2.25;2.25;;;;;8.52;100.00;102137.59;6333214;22;45533;-88
2022/04/03 09:15:33;;;;;;;;;0.50;0.50;;;;;8.52;98.70;102137.59;6331387;22;45614;-87
2022/04/03 09:18:01;;;;;;;;;0.00;0.00;;;;;8.55;98.45;102142.16;6358778;22;48355;-87
2022/04/03 09:20:29;;;;;;;;;3.00;1.75;;;;;8.62;99.05;102134.00;6331449;22;45375;-86
2022/04/03 09:22:59;;;;;;;;;2.75;2.75;;;;;8.65;97.82;102136.84;6355839;22;45422;-87
2022/04/03 09:25:26;;;;;;;;;2.75;2.75;;;;;8.71;98.55;102139.03;6331934;22;45218;-87
2022/04/03 09:27:54;;;;;;;;;3.50;2.75;;;;;8.80;98.84;102133.56;6329188;22;47948;-87
2022/04/03 09:30:29;;;;;;;;;4.50;1.00;;;;;8.88;97.77;102139.38;6331566;22;45689;-88
2022/04/03 09:32:56;;;;;;;;;2.00;2.00;;;;;8.88;98.58;102127.19;6357135;22;45327;-86
2022/04/03 09:35:31;;;;;;;;;3.00;2.75;;;;;8.99;99.23;102125.38;6329526;22;45558;-87
2022/04/03 09:38:11;;;;;;;;;2.50;1.00;;;;;9.08;97.89;102143.47;6330551;22;45624;-87
2022/04/03 09:40:42;;;;;;;;;2.75;2.75;;;;;9.19;97.86;102135.50;6328602;22;45351;-87
2022/04/03 09:43:15;;;;;;;;;0.75;0.75;;;;;9.23;97.14;102125.34;6332288;22;45312;-87
2022/04/03 09:45:49;;;;;;;;;2.00;2.00;;;;;9.28;97.58;102133.53;6332019;22;45297;-86
2022/04/03 09:48:20;;;;;;;;;1.75;1.75;;;;;9.33;96.68;102126.94;6357087;22;46558;-87
2022/04/03 09:50:54;;;;;;;;;2.00;2.00;;;;;9.42;97.15;102131.94;6330928;22;45346;-87
2022/04/03 09:53:20;;;;;;;;;1.00;1.00;;;;;9.47;97.21;102119.16;6356180;22;45379;-87
2022/04/03 09:55:46;;;;;;;;;2.00;2.00;;;;;9.53;96.72;102127.47;6331148;22;45240;-87
2022/04/03 09:58:12;;;;;;;;;3.50;3.50;;;;;9.58;96.84;102133.06;6328035;22;47933;-87
2022/04/03 10:00:41;;;;;;;;;3.50;1.75;;;;;9.66;96.53;102133.59;6329447;22;45616;-87
2022/04/03 10:03:09;;;;;;;;;2.00;2.00;;;;;9.80;95.46;102125.00;6332407;22;45374;-87
2022/04/03 10:05:34;;;;;;;;;1.00;1.00;;;;;9.84;95.33;102116.53;6328317;22;45424;-87
2022/04/03 10:08:02;;;;;;;;;1.00;1.00;;;;;9.91;95.96;102114.34;6331137;22;46145;-88
2022/04/03 10:10:28;;;;;;;;;2.00;2.00;;;;;10.02;95.89;102129.16;6329510;22;45408;-88
2022/04/03 10:12:57;;;;;;;;;7.50;6.00;;;;;10.18;96.08;102111.81;6330385;22;45636;-89
2022/04/03 10:15:24;;;;;;;;;3.00;3.00;;;;;10.54;96.31;102110.75;6328537;22;45345;-88
2022/04/03 10:17:49;;;;;;;;;2.00;2.00;;;;;10.81;95.35;102111.69;6328266;22;47287;-87
2022/04/03 10:20:14;;;;;;;;;3.00;2.00;;;;;10.94;95.78;102102.00;6329246;22;45944;-85
2022/04/03 10:22:43;;;;;;;;;0.00;0.00;;;;;11.16;94.49;102112.16;6329118;22;45343;-86
2022/04/03 10:25:14;;;;;;;;;0.75;0.75;;;;;11.08;93.52;102102.88;6332129;22;45319;-87
2022/04/03 10:27:42;;;;;;;;;2.00;1.00;;;;;11.01;93.21;102105.91;6330477;22;45393;-87
2022/04/03 10:30:10;;;;;;;;;3.00;3.00;;;;;11.00;93.49;102112.00;6328182;22;45710;-87
2022/04/03 10:32:36;;;;;;;;;5.50;5.50;;;;;11.03;93.80;102101.69;6332188;22;45326;-88
2022/04/03 10:35:09;;;;;;;;;4.25;4.25;;;;;11.02;93.49;102107.75;6330618;22;45599;-87
2022/04/03 10:37:43;;;;;;;;;1.00;1.00;;;;;11.00;92.75;102112.91;6331031;22;46629;-87
2022/04/03 10:40:11;;;;;;;;;5.75;5.75;;;;;10.95;92.25;102112.59;6329063;22;45370;-88
2022/04/03 10:42:53;;;;;;;;;3.75;3.75;;;;;10.96;92.60;102110.88;6329106;22;45337;-86
2022/04/03 10:45:23;;;;;;;;;3.00;2.67;;;;;11.06;92.59;102096.63;6333011;22;45393;-87
2022/04/03 10:47:49;;;;;;;;;2.00;1.00;;;;;11.12;93.25;102090.84;6356012;22;47361;-88
2022/04/03 10:50:15;;;;;;;;;3.33;2.00;;;;;11.31;93.09;102102.56;6328575;22;45453;-86
2022/04/03 10:52:40;;;;;;;;;2.00;2.00;;;;;11.54;92.30;102088.25;6331120;22;45719;-87
2022/04/03 10:55:20;;;;;;;;;2.33;1.00;;;;;11.81;92.98;102095.13;6330669;22;45532;-86
2022/04/03 10:57:55;;;;;;;;;4.50;2.25;;;;;12.07;92.54;102095.84;6332488;22;45442;-91
2022/04/03 11:00:24;;;;;;;;;6.75;5.00;;;;;12.24;91.58;102086.34;6351684;22;45620;-90
2022/04/03 11:02:58;;;;;;;;;5.25;4.00;;;;;12.27;91.02;102089.19;6331621;22;45293;-87
2022/04/03 11:05:26;;;;;;;;;2.75;2.75;;;;;12.35;92.06;102067.66;6330804;22;45729;-87
2022/04/03 11:08:01;;;;;;;;;1.33;1.33;;;;;12.48;92.29;102079.81;6330817;22;45432;-86
2022/04/03 11:10:54;;;;;;;;;2.33;1.33;;;;;12.69;91.44;102068.75;6331193;22;45671;-88
2022/04/03 11:13:28;;;;;;;;;4.33;2.67;;;;;13.04;91.55;102066.31;6329099;22;45584;-87
2022/04/03 11:15:54;;;;;;;;;4.00;3.50;;;;;13.37;92.31;102061.13;6355819;22;45320;-86
2022/04/03 11:18:37;;;;;;;;;3.00;3.00;;;;;13.68;90.90;102067.19;6355773;22;49008;-86
2022/04/03 11:21:16;;;;;;;;;3.00;3.00;;;;;13.91;91.14;102050.75;6349673;22;45860;-87